createdAt,value
2023-05-12T00:00:11.237Z,5.35
2023-05-12T00:01:10.968Z,5.26
2023-05-12T00:02:11.184Z,5.16
2023-05-12T00:03:11.700Z,5.04
2023-05-12T00:04:12.054Z,4.94
2023-05-12T00:05:12.246Z,4.88
2023-05-12T00:06:12.752Z,4.76
2023-05-12T00:07:13.046Z,4.74
2023-05-12T00:08:13.366Z,4.78
2023-05-12T00:09:13.919Z,4.82
2023-05-12T00:10:14.194Z,4.9
2023-05-12T00:11:14.522Z,4.98
2023-05-12T00:12:14.730Z,5
2023-05-12T00:13:15.141Z,4.98
2023-05-12T00:14:16.375Z,5.02
2023-05-12T00:15:15.805Z,5.05
2023-05-12T00:16:16.271Z,5.11
2023-05-12T00:17:16.614Z,5.13
2023-05-12T00:18:17.375Z,5.13
2023-05-12T00:19:21.090Z,5.13
2023-05-12T00:20:18.744Z,5.14
2023-05-12T00:21:18.893Z,5.17
2023-05-12T00:22:19.297Z,5.16
2023-05-12T00:23:19.524Z,5.17
2023-05-12T00:24:20.132Z,5.13
2023-05-12T00:25:20.362Z,5.05
2023-05-12T00:26:20.680Z,4.91
2023-05-12T00:27:21.071Z,4.83
2023-05-12T00:28:21.435Z,4.72
2023-05-12T00:29:21.696Z,4.6
2023-05-12T00:30:22.648Z,4.48
2023-05-12T00:31:22.555Z,4.42
2023-05-12T00:32:22.896Z,4.48
2023-05-12T00:33:23.220Z,4.54
2023-05-12T00:34:23.416Z,4.59
2023-05-12T00:35:24.203Z,4.62
2023-05-12T00:36:24.733Z,4.66
2023-05-12T00:37:24.691Z,4.71
2023-05-12T00:38:25.152Z,4.77
2023-05-12T00:39:25.413Z,4.77
2023-05-12T00:40:25.796Z,4.78
2023-05-12T00:41:26.039Z,4.72
2023-05-12T00:42:26.714Z,4.69
2023-05-12T00:43:26.927Z,4.66
2023-05-12T00:44:27.139Z,4.6
2023-05-12T00:45:27.638Z,4.54
2023-05-12T00:46:28.077Z,4.49
2023-05-12T00:47:28.891Z,4.46
2023-05-12T00:48:28.694Z,4.46
2023-05-12T00:49:29.108Z,4.47
2023-05-12T00:50:29.642Z,4.5
2023-05-12T00:51:30.045Z,4.54
2023-05-12T00:52:30.428Z,4.56
2023-05-12T00:53:45.058Z,4.6
2023-05-12T00:54:36.740Z,4.61
2023-05-12T00:55:36.944Z,4.63
2023-05-12T00:56:37.404Z,4.63
2023-05-12T00:57:36.955Z,4.66
2023-05-12T00:58:37.065Z,4.7
2023-05-12T00:59:37.338Z,4.7
2023-05-12T01:00:37.785Z,4.66
2023-05-12T01:01:38.322Z,4.6
2023-05-12T01:02:38.990Z,4.56
2023-05-12T01:03:39.250Z,4.51
2023-05-12T01:04:39.977Z,4.43
2023-05-12T01:06:55.606Z,4.38
2023-05-12T01:07:49.312Z,4.39
2023-05-12T01:08:48.680Z,4.37
2023-05-12T01:09:53.461Z,4.37
2023-05-12T01:10:50.955Z,4.36
2023-05-12T01:11:51.733Z,4.37
2023-05-12T01:12:51.520Z,4.36
2023-05-12T01:13:52.117Z,4.33
2023-05-12T01:14:54.556Z,4.32
2023-05-12T01:15:54.387Z,4.3
2023-05-12T01:16:56.157Z,4.24
2023-05-12T01:18:00.680Z,4.16
2023-05-12T01:18:58.970Z,4.14
2023-05-12T01:20:01.731Z,4.11
2023-05-12T01:21:00.773Z,4.05
2023-05-12T01:22:00.553Z,3.99
2023-05-12T01:23:01.597Z,3.97
2023-05-12T01:24:06.446Z,3.97
2023-05-12T01:25:11.315Z,4.01
2023-05-12T01:26:10.053Z,4.07
2023-05-12T01:27:10.623Z,4.13
2023-05-12T01:28:10.212Z,4.21
2023-05-12T01:29:10.947Z,4.27
2023-05-12T01:30:14.942Z,4.35
2023-05-12T01:31:13.579Z,4.35
2023-05-12T01:32:13.527Z,4.36
2023-05-12T01:33:13.313Z,4.35
2023-05-12T01:34:19.285Z,4.36
2023-05-12T01:35:16.972Z,4.37
2023-05-12T01:36:17.164Z,4.36
2023-05-12T01:37:17.647Z,4.31
2023-05-12T01:38:17.963Z,4.31
2023-05-12T01:39:18.196Z,4.26
2023-05-12T01:40:18.755Z,4.26
2023-05-12T01:41:18.948Z,4.25
2023-05-12T01:42:19.717Z,4.24
2023-05-12T01:43:21.514Z,4.24
2023-05-12T01:44:19.941Z,4.24
2023-05-12T01:45:20.358Z,4.26
2023-05-12T01:46:20.774Z,4.26
2023-05-12T01:47:21.135Z,4.27
2023-05-12T01:48:21.496Z,4.27
2023-05-12T01:49:21.723Z,4.27
2023-05-12T01:50:22.213Z,4.27
2023-05-12T01:51:22.504Z,4.27
2023-05-12T01:52:23.015Z,4.28
2023-05-12T01:53:23.268Z,4.29
2023-05-12T01:54:23.733Z,4.27
2023-05-12T01:55:23.870Z,4.27
2023-05-12T01:56:24.214Z,4.28
2023-05-12T01:57:24.735Z,4.32
2023-05-12T01:58:25.006Z,4.35
2023-05-12T01:59:25.370Z,4.36
2023-05-12T02:00:25.779Z,4.4
2023-05-12T02:01:26.043Z,4.43
2023-05-12T02:02:26.594Z,4.42
2023-05-12T02:03:26.813Z,4.41
2023-05-12T02:04:27.152Z,4.41
2023-05-12T02:05:27.564Z,4.4
2023-05-12T02:06:27.705Z,4.42
2023-05-12T02:07:28.282Z,4.41
2023-05-12T02:08:28.809Z,4.4
2023-05-12T02:09:28.900Z,4.41
2023-05-12T02:10:29.286Z,4.42
2023-05-12T02:11:29.576Z,4.44
2023-05-12T02:12:30.007Z,4.48
2023-05-12T02:13:30.382Z,4.51
2023-05-12T02:14:30.812Z,4.54
2023-05-12T02:15:31.433Z,4.57
2023-05-12T02:16:31.566Z,4.59
2023-05-12T02:17:31.853Z,4.63
2023-05-12T02:18:32.072Z,4.67
2023-05-12T02:19:32.611Z,4.72
2023-05-12T02:20:32.993Z,4.75
2023-05-12T02:21:33.307Z,4.75
2023-05-12T02:22:33.635Z,4.76
2023-05-12T02:23:34.115Z,4.81
2023-05-12T02:24:34.337Z,4.79
2023-05-12T02:25:34.542Z,4.79
2023-05-12T02:26:34.905Z,4.74
2023-05-12T02:27:35.482Z,4.71
2023-05-12T02:28:35.797Z,4.74
2023-05-12T02:29:36.008Z,4.75
2023-05-12T02:30:37.140Z,4.75
2023-05-12T02:31:36.885Z,4.8
2023-05-12T02:32:37.575Z,4.82
2023-05-12T02:33:37.582Z,4.83
2023-05-12T02:34:37.893Z,4.84
2023-05-12T02:35:38.187Z,4.86
2023-05-12T02:36:38.671Z,4.85
2023-05-12T02:37:39.025Z,4.86
2023-05-12T02:38:39.357Z,4.88
2023-05-12T02:39:39.667Z,4.89
2023-05-12T02:40:39.879Z,4.86
2023-05-12T02:41:40.289Z,4.88
2023-05-12T02:42:40.810Z,4.89
2023-05-12T02:43:41.050Z,4.92
2023-05-12T02:44:41.529Z,4.94
2023-05-12T02:45:41.998Z,4.96
2023-05-12T02:46:42.175Z,4.99
2023-05-12T02:47:42.718Z,4.98
2023-05-12T02:48:42.997Z,5.02
2023-05-12T02:49:43.419Z,5.04
2023-05-12T02:50:43.723Z,5.07
2023-05-12T02:51:44.157Z,5.12
2023-05-12T02:52:44.453Z,5.17
2023-05-12T02:53:44.709Z,5.17
2023-05-12T02:54:45.700Z,5.2
2023-05-12T02:55:45.605Z,5.18
2023-05-12T02:56:45.860Z,5.18
2023-05-12T02:57:46.335Z,5.21
2023-05-12T02:58:46.553Z,5.25
2023-05-12T02:59:46.961Z,5.3
2023-05-12T03:00:50.193Z,5.35
2023-05-12T03:01:51.808Z,5.38
2023-05-12T03:02:52.293Z,5.43
2023-05-12T03:03:52.665Z,5.4
2023-05-12T03:04:52.932Z,5.45
2023-05-12T03:05:53.353Z,5.46
2023-05-12T03:06:53.654Z,5.47
2023-05-12T03:07:54.049Z,5.51
2023-05-12T03:08:54.289Z,5.51
2023-05-12T03:09:55.027Z,5.51
2023-05-12T03:10:55.029Z,5.55
2023-05-12T03:11:55.649Z,5.59
2023-05-12T03:12:55.863Z,5.61
2023-05-12T03:13:56.174Z,5.64
2023-05-12T03:14:56.694Z,5.64
2023-05-12T03:15:56.851Z,5.66
2023-05-12T03:16:57.293Z,5.68
2023-05-12T03:17:57.786Z,5.72
2023-05-12T03:18:58.150Z,5.73
2023-05-12T03:19:58.360Z,5.71
2023-05-12T03:20:58.777Z,5.7
2023-05-12T03:21:59.189Z,5.66
2023-05-12T03:22:59.664Z,5.62
2023-05-12T03:23:59.919Z,5.62
2023-05-12T03:25:00.274Z,5.7
2023-05-12T03:26:00.548Z,5.75
2023-05-12T03:27:01.494Z,5.84
2023-05-12T03:28:02.821Z,5.87
2023-05-12T03:29:01.808Z,5.86
2023-05-12T03:30:02.328Z,5.87
2023-05-12T03:31:02.518Z,5.87
2023-05-12T03:32:02.731Z,5.96
2023-05-12T03:33:03.360Z,6.02
2023-05-12T03:34:03.668Z,6.04
2023-05-12T03:35:04.453Z,6.11
2023-05-12T03:36:04.909Z,6.16
2023-05-12T03:37:05.128Z,6.18
2023-05-12T03:38:05.281Z,6.22
2023-05-12T03:39:05.447Z,6.26
2023-05-12T03:40:07.110Z,6.3
2023-05-12T03:41:09.039Z,6.33
2023-05-12T03:42:07.012Z,6.38
2023-05-12T03:43:07.109Z,6.43
2023-05-12T03:44:07.317Z,6.48
2023-05-12T03:45:08.983Z,6.53
2023-05-12T03:46:08.442Z,6.53
2023-05-12T03:47:08.387Z,6.5
2023-05-12T03:48:08.882Z,6.51
2023-05-12T03:49:09.196Z,6.56
2023-05-12T03:50:10.347Z,6.6
2023-05-12T03:51:10.039Z,6.65
2023-05-12T03:52:10.359Z,6.69
2023-05-12T03:53:10.966Z,6.76
2023-05-12T03:54:11.065Z,6.81
2023-05-12T03:55:11.903Z,6.96
2023-05-12T03:56:11.857Z,7.07
2023-05-12T03:57:12.780Z,7.25
2023-05-12T03:58:12.752Z,7.36
2023-05-12T03:59:12.909Z,7.36
2023-05-12T04:00:14.391Z,7.43
2023-05-12T04:01:14.189Z,7.39
2023-05-12T04:02:14.105Z,7.51
2023-05-12T04:03:14.693Z,7.57
2023-05-12T04:04:14.980Z,7.63
2023-05-12T04:05:15.643Z,7.72
2023-05-12T04:06:15.652Z,7.76
2023-05-12T04:07:16.090Z,7.8
2023-05-12T04:08:16.500Z,7.79
2023-05-12T04:09:16.743Z,7.77
2023-05-12T04:10:17.282Z,7.76
2023-05-12T04:11:17.544Z,7.76
2023-05-12T04:12:17.918Z,7.85
2023-05-12T04:13:18.782Z,7.86
2023-05-12T04:14:18.679Z,7.96
2023-05-12T04:15:19.631Z,8.09
2023-05-12T04:16:19.562Z,8.24
2023-05-12T04:17:19.876Z,8.3
2023-05-12T04:18:20.378Z,8.37
2023-05-12T04:19:21.076Z,8.45
2023-05-12T04:20:21.446Z,8.58
2023-05-12T04:21:21.398Z,8.77
2023-05-12T04:22:24.153Z,8.92
2023-05-12T04:23:23.511Z,9.09
2023-05-12T04:24:23.347Z,9.11
2023-05-12T04:25:23.872Z,9.14
2023-05-12T04:26:24.287Z,9.26
2023-05-12T04:27:24.656Z,9.31
2023-05-12T04:28:24.997Z,9.41
2023-05-12T04:29:25.375Z,9.45
2023-05-12T04:30:25.761Z,9.5
2023-05-12T04:31:26.297Z,9.55
2023-05-12T04:32:26.624Z,9.58
2023-05-12T04:33:27.377Z,9.56
2023-05-12T04:34:27.393Z,9.63
2023-05-12T04:35:28.344Z,9.71
2023-05-12T04:36:28.138Z,9.79
2023-05-12T04:37:28.621Z,9.88
2023-05-12T04:38:29.535Z,10.01
2023-05-12T04:39:29.388Z,10.08
2023-05-12T04:40:31.236Z,10.08
2023-05-12T04:41:30.132Z,10.12
2023-05-12T04:42:30.509Z,10.18
2023-05-12T04:44:31.567Z,10.49
2023-05-12T04:45:31.885Z,10.54
2023-05-12T04:46:32.304Z,10.53
2023-05-12T04:47:32.752Z,10.56
2023-05-12T04:48:33.044Z,10.56
2023-05-12T04:49:33.397Z,10.63
2023-05-12T04:50:33.823Z,10.7
2023-05-12T04:51:34.364Z,10.72
2023-05-12T04:52:34.798Z,10.75
2023-05-12T04:53:35.218Z,10.82
2023-05-12T04:54:35.557Z,10.98
2023-05-12T04:55:36.777Z,11.13
2023-05-12T04:56:36.467Z,11.17
2023-05-12T04:57:36.627Z,11.22
2023-05-12T04:58:37.226Z,11.32
2023-05-12T04:59:38.429Z,11.41
2023-05-12T05:00:38.035Z,11.47
2023-05-12T05:01:38.436Z,11.55
2023-05-12T05:02:38.794Z,11.67
2023-05-12T05:03:39.888Z,11.7
2023-05-12T05:04:39.654Z,11.72
2023-05-12T05:05:39.903Z,11.84
2023-05-12T05:06:40.372Z,11.9
2023-05-12T05:07:40.960Z,11.92
2023-05-12T05:08:41.258Z,11.99
2023-05-12T05:09:41.613Z,12.05
2023-05-12T05:10:42.197Z,11.96
2023-05-12T05:11:42.604Z,11.86
2023-05-12T05:12:42.922Z,11.9
2023-05-12T05:13:43.418Z,11.94
2023-05-12T05:14:43.853Z,12.05
2023-05-12T05:15:53.753Z,12.22
2023-05-12T05:16:46.457Z,12.33
2023-05-12T05:17:46.775Z,12.4
2023-05-12T05:18:47.281Z,12.41
2023-05-12T05:19:54.857Z,12.37
2023-05-12T05:20:57.241Z,12.43
2023-05-12T05:21:51.627Z,12.6
2023-05-12T05:22:52.106Z,12.75
2023-05-12T05:23:52.632Z,12.82
2023-05-12T05:24:53.050Z,12.94
2023-05-12T05:25:53.563Z,13.05
2023-05-12T05:26:53.914Z,13.15
2023-05-12T05:27:54.836Z,13.21
2023-05-12T05:28:54.704Z,13.31
2023-05-12T05:29:55.071Z,13.35
2023-05-12T05:30:55.496Z,13.43
2023-05-12T05:31:56.727Z,13.48
2023-05-12T05:32:57.003Z,13.54
2023-05-12T05:33:58.110Z,13.67
2023-05-12T05:34:57.862Z,13.8
2023-05-12T05:35:58.435Z,13.87
2023-05-12T05:36:58.694Z,13.84
2023-05-12T05:37:59.269Z,13.91
2023-05-12T05:38:59.694Z,13.99
2023-05-12T05:39:59.960Z,14.04
2023-05-12T05:41:00.356Z,14.15
2023-05-12T05:42:00.899Z,14.19
2023-05-12T05:43:01.249Z,14.24
2023-05-12T05:44:01.769Z,14.32
2023-05-12T05:45:02.296Z,14.32
2023-05-12T05:46:02.815Z,14.36
2023-05-12T05:47:03.218Z,14.4
2023-05-12T05:48:03.975Z,14.5
2023-05-12T05:49:03.953Z,14.63
2023-05-12T05:50:04.885Z,14.7
2023-05-12T05:51:05.205Z,14.77
2023-05-12T05:52:06.029Z,14.85
2023-05-12T05:53:05.572Z,14.9
2023-05-12T05:54:06.264Z,14.89
2023-05-12T05:55:08.088Z,14.85
2023-05-12T05:56:08.197Z,14.9
2023-05-12T05:57:07.969Z,14.94
2023-05-12T05:58:08.420Z,14.95
2023-05-12T05:59:08.995Z,15.04
2023-05-12T06:00:10.118Z,15.15
2023-05-12T06:01:09.893Z,15.19
2023-05-12T06:02:10.216Z,15.24
2023-05-12T06:03:11.042Z,15.33
2023-05-12T06:04:11.242Z,15.45
2023-05-12T06:05:12.484Z,15.5
2023-05-12T06:06:12.064Z,15.59
2023-05-12T06:07:12.564Z,15.69
2023-05-12T06:08:12.982Z,15.73
2023-05-12T06:09:13.494Z,15.79
2023-05-12T06:10:14.059Z,15.85
2023-05-12T06:11:15.356Z,15.92
2023-05-12T06:12:14.702Z,15.99
2023-05-12T06:13:15.267Z,16.08
2023-05-12T06:14:15.609Z,16.12
2023-05-12T06:15:16.309Z,16.21
2023-05-12T06:16:16.618Z,16.26
2023-05-12T06:17:17.257Z,16.25
2023-05-12T06:18:17.460Z,16.32
2023-05-12T06:19:17.982Z,16.26
2023-05-12T06:20:18.698Z,16.31
2023-05-12T06:21:18.862Z,16.35
2023-05-12T06:22:19.429Z,16.47
2023-05-12T06:23:19.613Z,16.46
2023-05-12T06:24:20.250Z,16.51
2023-05-12T06:25:20.907Z,16.56
2023-05-12T06:26:21.041Z,16.55
2023-05-12T06:27:21.615Z,16.66
2023-05-12T06:28:21.945Z,16.63
2023-05-12T06:29:22.853Z,16.66
2023-05-12T06:30:22.955Z,16.7
2023-05-12T06:31:23.259Z,16.7
2023-05-12T06:32:23.884Z,16.76
2023-05-12T06:33:24.277Z,16.82
2023-05-12T06:34:25.291Z,16.85
2023-05-12T06:35:25.136Z,16.92
2023-05-12T06:36:25.666Z,16.98
2023-05-12T06:37:26.188Z,17.04
2023-05-12T06:38:26.489Z,17.21
2023-05-12T06:39:27.141Z,17.28
2023-05-12T06:40:27.475Z,17.16
2023-05-12T06:41:27.853Z,17.15
2023-05-12T06:42:28.470Z,17.27
2023-05-12T06:43:28.781Z,17.38
2023-05-12T06:44:29.706Z,17.45
2023-05-12T06:45:30.245Z,17.51
2023-05-12T06:46:30.517Z,17.52
2023-05-12T06:47:30.793Z,17.6
2023-05-12T06:48:31.336Z,17.66
2023-05-12T06:49:31.999Z,17.66
2023-05-12T06:50:32.112Z,17.69
2023-05-12T06:51:32.564Z,17.64
2023-05-12T06:52:32.984Z,17.69
2023-05-12T06:53:33.702Z,17.83
2023-05-12T06:54:33.982Z,17.8
2023-05-12T06:55:34.347Z,17.71
2023-05-12T06:56:35.725Z,17.79
2023-05-12T06:57:36.065Z,17.86
2023-05-12T06:58:36.378Z,17.99
2023-05-12T06:59:36.777Z,18.04
2023-05-12T07:00:37.107Z,17.93
2023-05-12T07:01:37.648Z,17.94
2023-05-12T07:02:37.922Z,17.88
2023-05-12T07:03:38.457Z,17.86
2023-05-12T07:04:38.981Z,17.94
2023-05-12T07:05:39.107Z,18.09
2023-05-12T07:06:39.689Z,18.17
2023-05-12T07:07:39.997Z,17.97
2023-05-12T07:08:40.359Z,18.03
2023-05-12T07:09:40.636Z,18.03
2023-05-12T07:10:41.316Z,18.24
2023-05-12T07:11:41.455Z,18.39
2023-05-12T07:12:41.886Z,18.46
2023-05-12T07:13:42.398Z,18.37
2023-05-12T07:14:42.602Z,18.27
2023-05-12T07:15:43.099Z,18.35
2023-05-12T07:16:43.437Z,18.41
2023-05-12T07:17:43.680Z,18.3
2023-05-12T07:18:44.406Z,18.33
2023-05-12T07:19:44.487Z,18.44
2023-05-12T07:20:44.866Z,18.42
2023-05-12T07:21:45.515Z,18.44
2023-05-12T07:22:45.581Z,18.25
2023-05-12T07:23:45.939Z,18.4
2023-05-12T07:24:46.661Z,18.57
2023-05-12T07:25:46.896Z,18.46
2023-05-12T07:26:47.085Z,18.39
2023-05-12T07:27:47.612Z,18.38
2023-05-12T07:28:47.823Z,18.42
2023-05-12T07:29:48.326Z,18.56
2023-05-12T07:30:48.656Z,18.66
2023-05-12T07:31:49.184Z,18.72
2023-05-12T07:32:49.453Z,18.72
2023-05-12T07:33:49.698Z,18.73
2023-05-12T07:34:50.467Z,18.66
2023-05-12T07:35:50.366Z,18.47
2023-05-12T07:36:51.138Z,18.3
2023-05-12T07:37:51.251Z,18.2
2023-05-12T07:38:51.571Z,18.26
2023-05-12T07:39:52.083Z,18.42
2023-05-12T07:40:52.470Z,18.56
2023-05-12T07:41:52.649Z,18.57
2023-05-12T07:42:53.179Z,18.62
2023-05-12T07:43:53.650Z,18.68
2023-05-12T07:44:54.010Z,18.79
2023-05-12T07:45:54.379Z,18.81
2023-05-12T07:46:54.720Z,18.81
2023-05-12T07:47:55.060Z,18.93
2023-05-12T07:48:55.528Z,19
2023-05-12T07:49:55.955Z,19.08
2023-05-12T07:50:56.184Z,18.85
2023-05-12T07:51:56.520Z,18.89
2023-05-12T07:52:56.989Z,18.71
2023-05-12T07:53:57.612Z,18.57
2023-05-12T07:54:57.832Z,18.53
2023-05-12T07:55:58.149Z,18.47
2023-05-12T07:56:59.267Z,18.58
2023-05-12T07:57:59.171Z,18.52
2023-05-12T07:58:59.503Z,18.52
2023-05-12T07:59:59.688Z,18.64
2023-05-12T08:01:00.154Z,18.8
2023-05-12T08:02:00.506Z,18.92
2023-05-12T08:03:01.014Z,18.83
2023-05-12T08:04:01.392Z,18.92
2023-05-12T08:05:01.782Z,19.01
2023-05-12T08:06:02.017Z,19.05
2023-05-12T08:07:02.407Z,18.97
2023-05-12T08:08:02.720Z,18.94
2023-05-12T08:09:03.456Z,18.92
2023-05-12T08:10:05.099Z,18.99
2023-05-12T08:11:03.903Z,19.05
2023-05-12T08:12:04.897Z,19.15
2023-05-12T08:13:04.701Z,19.14
2023-05-12T08:14:05.123Z,19.11
2023-05-12T08:15:05.975Z,19.04
2023-05-12T08:16:06.164Z,19
2023-05-12T08:17:06.244Z,19.06
2023-05-12T08:18:06.646Z,19.12
2023-05-12T08:19:07.133Z,19.21
2023-05-12T08:20:08.320Z,19.33
2023-05-12T08:21:07.716Z,19.36
2023-05-12T08:22:08.139Z,19.34
2023-05-12T08:23:08.544Z,19.23
2023-05-12T08:24:09.371Z,19.22
2023-05-12T08:25:12.286Z,19.24
2023-05-12T08:26:10.001Z,19.43
2023-05-12T08:27:10.517Z,19.57
2023-05-12T08:28:11.867Z,19.45
2023-05-12T08:29:11.152Z,19.43
2023-05-12T08:30:12.291Z,19.5
2023-05-12T08:31:12.369Z,19.62
2023-05-12T08:32:12.598Z,19.69
2023-05-12T08:33:12.914Z,19.51
2023-05-12T08:34:13.243Z,19.42
2023-05-12T08:35:13.884Z,19.35
2023-05-12T08:36:13.854Z,19.3
2023-05-12T08:37:14.486Z,19.38
2023-05-12T08:38:14.691Z,19.54
2023-05-12T08:39:15.304Z,19.49
2023-05-12T08:40:20.541Z,19.36
2023-05-12T08:41:28.961Z,19.48
2023-05-12T08:44:30.963Z,19.78
2023-05-12T08:45:30.451Z,19.8
2023-05-12T08:46:32.314Z,19.88
2023-05-12T08:47:33.765Z,19.87
2023-05-12T08:48:34.267Z,19.76
2023-05-12T08:49:33.514Z,19.66
2023-05-12T08:50:35.678Z,19.8
2023-05-12T08:51:36.818Z,19.76
2023-05-12T08:52:35.076Z,19.78
2023-05-12T08:53:36.714Z,19.84
2023-05-12T08:54:48.701Z,19.99
2023-05-12T08:55:44.641Z,19.98
2023-05-12T08:57:47.894Z,19.9
2023-05-12T08:58:46.620Z,20.03
2023-05-12T08:59:47.287Z,20.11
2023-05-12T09:00:47.667Z,20.08
2023-05-12T09:01:48.994Z,20
2023-05-12T09:02:54.121Z,20.06
2023-05-12T09:03:52.694Z,20.09
2023-05-12T09:04:53.334Z,20.03
2023-05-12T09:05:53.509Z,20.05
2023-05-12T09:06:55.756Z,20.06
2023-05-12T09:07:54.833Z,20.06
2023-05-12T09:08:53.842Z,20.21
2023-05-12T09:09:59.028Z,20.26
2023-05-12T09:11:00.573Z,20.21
2023-05-12T09:12:01.625Z,20.36
2023-05-12T09:15:08.418Z,20.5
2023-05-12T09:17:09.531Z,20.29
2023-05-12T09:18:09.270Z,20.21
2023-05-12T09:19:09.649Z,20.33
2023-05-12T09:20:23.817Z,20.46
2023-05-12T09:21:13.649Z,20.48
2023-05-12T09:22:13.541Z,20.48
2023-05-12T09:24:16.529Z,20.5
2023-05-12T09:26:18.779Z,20.45
2023-05-12T09:28:21.703Z,20.26
2023-05-12T09:29:31.487Z,20.32
2023-05-12T09:30:32.091Z,20.34
2023-05-12T09:31:29.615Z,20.47
2023-05-12T09:32:33.978Z,20.54
2023-05-12T09:33:34.721Z,20.3
2023-05-12T09:34:35.905Z,20.29
2023-05-12T09:35:38.578Z,20.55
2023-05-12T09:36:36.373Z,20.38
2023-05-12T09:37:36.272Z,20.37
2023-05-12T09:38:36.852Z,20.32
2023-05-12T09:39:37.251Z,20.1
2023-05-12T09:40:37.789Z,20.24
2023-05-12T09:41:42.708Z,20.24
2023-05-12T09:42:42.666Z,20.2
2023-05-12T09:43:46.142Z,20.34
2023-05-12T09:44:43.610Z,20.45
2023-05-12T09:45:44.126Z,20.46
2023-05-12T09:46:44.944Z,20.64
2023-05-12T09:47:44.935Z,20.89
2023-05-12T09:48:48.538Z,20.98
2023-05-12T09:49:52.337Z,20.5
2023-05-12T09:50:51.411Z,20.6
2023-05-12T09:52:51.341Z,21.03
2023-05-12T09:53:51.807Z,21.06
2023-05-12T09:54:52.166Z,20.98
2023-05-12T09:55:52.731Z,20.89
2023-05-12T09:56:57.397Z,20.84
2023-05-12T09:57:57.145Z,20.83
2023-05-12T09:58:56.641Z,20.57
2023-05-12T09:59:56.081Z,20.7
2023-05-12T10:02:00.241Z,20.56
2023-05-12T10:02:58.483Z,20.35
2023-05-12T10:03:59.217Z,20.41
2023-05-12T10:05:03.227Z,20.64
2023-05-12T10:06:03.456Z,20.73
2023-05-12T10:07:02.043Z,20.59
2023-05-12T10:08:07.613Z,20.74
2023-05-12T10:09:18.204Z,20.88
2023-05-12T10:10:06.897Z,21.02
2023-05-12T10:11:06.195Z,20.78
2023-05-12T10:12:07.059Z,20.74
2023-05-12T10:13:07.241Z,21.06
2023-05-12T10:14:07.907Z,21.09
2023-05-12T10:15:09.798Z,20.95
2023-05-12T10:16:09.291Z,20.84
2023-05-12T10:17:10.067Z,20.85
2023-05-12T10:18:09.242Z,20.63
2023-05-12T10:19:11.183Z,20.73
2023-05-12T10:20:11.365Z,20.83
2023-05-12T10:21:10.869Z,20.73
2023-05-12T10:22:11.181Z,20.79
2023-05-12T10:23:12.468Z,20.85
2023-05-12T10:24:11.805Z,20.97
2023-05-12T10:25:12.324Z,21.17
2023-05-12T10:26:13.150Z,21.05
2023-05-12T10:27:15.653Z,21.09
2023-05-12T10:28:13.168Z,20.85
2023-05-12T10:29:14.411Z,20.86
2023-05-12T10:30:14.821Z,20.87
2023-05-12T10:31:14.991Z,20.8
2023-05-12T10:32:15.438Z,21.07
2023-05-12T10:33:15.149Z,21.37
2023-05-12T10:34:18.735Z,20.93
2023-05-12T10:35:16.732Z,20.89
2023-05-12T10:36:20.966Z,20.81
2023-05-12T10:37:18.561Z,21.02
2023-05-12T10:38:19.598Z,21.21
2023-05-12T10:39:19.175Z,21.1
2023-05-12T10:40:25.241Z,21.28
2023-05-12T10:41:35.222Z,21.48
2023-05-12T10:42:27.600Z,21.38
2023-05-12T10:43:29.899Z,21.34
2023-05-12T10:44:28.828Z,21.34
2023-05-12T10:45:29.374Z,21.2
2023-05-12T10:46:29.197Z,21.17
2023-05-12T10:47:43.166Z,21.37
2023-05-12T10:48:30.776Z,21.15
2023-05-12T10:49:40.765Z,20.94
2023-05-12T10:50:33.590Z,21.11
2023-05-12T10:52:36.660Z,20.74
2023-05-12T10:53:49.249Z,20.52
2023-05-12T10:54:42.212Z,20.39
2023-05-12T10:55:44.315Z,20.35
2023-05-12T10:56:45.310Z,20.33
2023-05-12T10:57:50.370Z,20.33
2023-05-12T11:00:51.958Z,20.64
2023-05-12T11:02:55.792Z,21.48
2023-05-12T11:03:58.857Z,21.57
2023-05-12T11:05:01.921Z,21.67
2023-05-12T11:06:01.708Z,21.66
2023-05-12T11:07:01.300Z,21.54
2023-05-12T11:08:02.555Z,21.5
2023-05-12T11:09:05.028Z,20.95
2023-05-12T11:10:05.871Z,21.16
2023-05-12T11:11:04.457Z,21.23
2023-05-12T11:12:07.251Z,21.35
2023-05-12T11:13:05.085Z,21.43
2023-05-12T11:14:05.559Z,21.43
2023-05-12T11:15:07.356Z,21.34
2023-05-12T11:16:06.846Z,21.4
2023-05-12T11:17:07.061Z,21.28
2023-05-12T11:18:07.168Z,21.11
2023-05-12T11:19:07.592Z,21.1
2023-05-12T11:20:08.835Z,21.12
2023-05-12T11:21:12.008Z,20.91
2023-05-12T11:22:11.370Z,20.92
2023-05-12T11:23:09.876Z,20.81
2023-05-12T11:24:13.068Z,20.65
2023-05-12T11:25:12.185Z,20.48
2023-05-12T11:26:17.707Z,20.39
2023-05-12T11:27:17.274Z,20.37
2023-05-12T11:28:16.237Z,20.24
2023-05-12T11:29:15.879Z,20.1
2023-05-12T11:30:16.852Z,20.05
2023-05-12T11:31:20.617Z,20
2023-05-12T11:32:18.194Z,19.99
2023-05-12T11:33:21.161Z,19.97
2023-05-12T11:34:25.889Z,19.95
2023-05-12T11:35:23.974Z,19.99
2023-05-12T11:36:23.770Z,20
2023-05-12T11:37:24.069Z,20.01
2023-05-12T11:38:24.558Z,20.04
2023-05-12T11:39:27.467Z,19.99
2023-05-12T11:40:25.620Z,20.04
2023-05-12T11:41:26.446Z,20.07
2023-05-12T11:42:26.162Z,20.3
2023-05-12T11:43:28.508Z,20.49
2023-05-12T11:44:27.014Z,20.76
2023-05-12T11:45:30.561Z,21.11
2023-05-12T11:46:29.936Z,21.34
2023-05-12T11:47:28.736Z,21.46
2023-05-12T11:48:34.895Z,21.64
2023-05-12T11:49:32.864Z,21.84
2023-05-12T11:50:32.680Z,21.93
2023-05-12T11:51:33.171Z,21.84
2023-05-12T11:52:33.708Z,21.69
2023-05-12T11:53:40.071Z,21.66
2023-05-12T11:54:37.655Z,21.57
2023-05-12T11:55:38.154Z,21.46
2023-05-12T11:56:38.395Z,21.4
2023-05-12T11:57:38.837Z,21.29
2023-05-12T11:58:39.165Z,21.58
2023-05-12T11:59:39.718Z,21.89
2023-05-12T12:00:40.081Z,22.1
2023-05-12T12:01:46.660Z,21.86
2023-05-12T12:02:44.074Z,22.1
2023-05-12T12:03:48.062Z,22.3
2023-05-12T12:04:45.454Z,22.55
2023-05-12T12:06:50.518Z,22.42
2023-05-12T12:07:51.104Z,22.4
2023-05-12T12:08:59.209Z,22.37
2023-05-12T12:09:51.461Z,22.29
2023-05-12T12:10:51.882Z,22.23
2023-05-12T12:11:52.456Z,22.33
2023-05-12T12:12:52.719Z,22.29
2023-05-12T12:13:55.180Z,21.86
2023-05-12T12:14:53.560Z,21.62
2023-05-12T12:15:53.969Z,21.7
2023-05-12T12:16:54.570Z,21.6
2023-05-12T12:17:54.990Z,21.43
2023-05-12T12:18:55.736Z,21.18
2023-05-12T12:19:55.835Z,21.26
2023-05-12T12:20:56.114Z,21.45
2023-05-12T12:21:58.071Z,21.49
2023-05-12T12:22:57.040Z,21.61
2023-05-12T12:23:57.361Z,21.65
2023-05-12T12:24:57.825Z,21.99
2023-05-12T12:25:58.279Z,22.19
2023-05-12T12:26:58.605Z,22.08
2023-05-12T12:27:59.132Z,21.91
2023-05-12T12:28:59.430Z,21.59
2023-05-12T12:29:59.847Z,21.63
2023-05-12T12:31:00.403Z,21.69
2023-05-12T12:32:00.892Z,21.5
2023-05-12T12:33:01.163Z,21.45
2023-05-12T12:34:01.624Z,21.43
2023-05-12T12:35:02.042Z,21.15
2023-05-12T12:36:02.348Z,20.97
2023-05-12T12:37:02.766Z,20.91
2023-05-12T12:38:03.172Z,20.75
2023-05-12T12:39:04.005Z,20.63
2023-05-12T12:40:04.581Z,20.66
2023-05-12T12:41:04.346Z,20.71
2023-05-12T12:42:05.855Z,20.63
2023-05-12T12:43:05.162Z,20.5
2023-05-12T12:44:05.629Z,20.45
2023-05-12T12:45:07.108Z,20.48
2023-05-12T12:46:06.404Z,20.53
2023-05-12T12:47:06.967Z,20.54
2023-05-12T12:48:07.221Z,20.54
2023-05-12T12:49:07.561Z,20.55
2023-05-12T12:50:09.019Z,20.5
2023-05-12T12:51:08.376Z,20.45
2023-05-12T12:52:09.132Z,20.49
2023-05-12T12:53:09.116Z,20.53
2023-05-12T12:54:09.488Z,20.45
2023-05-12T12:55:10.352Z,20.45
2023-05-12T12:56:10.369Z,20.51
2023-05-12T12:57:10.713Z,20.52
2023-05-12T12:58:11.193Z,20.74
2023-05-12T12:59:11.512Z,20.92
2023-05-12T13:00:13.414Z,20.92
2023-05-12T13:01:12.587Z,20.84
2023-05-12T13:02:12.940Z,20.76
2023-05-12T13:03:13.274Z,20.64
2023-05-12T13:04:13.712Z,20.53
2023-05-12T13:05:13.997Z,20.54
2023-05-12T13:06:14.416Z,20.54
2023-05-12T13:07:14.943Z,20.55
2023-05-12T13:08:15.785Z,20.57
2023-05-12T13:09:16.168Z,20.58
2023-05-12T13:10:15.873Z,20.58
2023-05-12T13:11:16.358Z,20.62
2023-05-12T13:12:16.921Z,20.64
2023-05-12T13:13:17.270Z,20.67
2023-05-12T13:14:17.652Z,20.67
2023-05-12T13:15:19.370Z,20.6
2023-05-12T13:16:18.417Z,20.55
2023-05-12T13:17:18.793Z,20.49
2023-05-12T13:18:19.718Z,20.48
2023-05-12T13:19:19.639Z,20.52
2023-05-12T13:20:20.160Z,20.47
2023-05-12T13:21:20.295Z,20.4
2023-05-12T13:22:21.001Z,20.43
2023-05-12T13:23:21.082Z,20.38
2023-05-12T13:24:21.704Z,20.32
2023-05-12T13:25:22.476Z,20.44
2023-05-12T13:26:22.279Z,20.62
2023-05-12T13:27:22.850Z,20.67
2023-05-12T13:28:22.919Z,20.62
2023-05-12T13:29:23.715Z,20.58
2023-05-12T13:30:24.133Z,20.52